sensor_id;sensor_type;location;lat;lon;timestamp;temperature;humidity
41533;DHT22;27262;-35.248;149.138;2023-04-25T00:00:41;19.00;65.80
41533;DHT22;27262;-35.248;149.138;2023-04-25T00:03:12;19.00;64.90
41533;DHT22;27262;-35.248;149.138;2023-04-25T00:05:43;18.90;64.70
41533;DHT22;27262;-35.248;149.138;2023-04-25T00:08:14;18.90;64.80
41533;DHT22;27262;-35.248;149.138;2023-04-25T00:10:47;18.90;64.30
41533;DHT22;27262;-35.248;149.138;2023-04-25T00:13:18;18.80;64.20
41533;DHT22;27262;-35.248;149.138;2023-04-25T00:15:48;18.80;64.20
41533;DHT22;27262;-35.248;149.138;2023-04-25T00:18:20;18.80;64.80
41533;DHT22;27262;-35.248;149.138;2023-04-25T00:20:50;18.90;65.10
41533;DHT22;27262;-35.248;149.138;2023-04-25T00:23:21;18.90;65.40
41533;DHT22;27262;-35.248;149.138;2023-04-25T00:25:51;18.90;65.70
41533;DHT22;27262;-35.248;149.138;2023-04-25T00:28:22;18.90;66.90
41533;DHT22;27262;-35.248;149.138;2023-04-25T00:30:52;18.90;65.10
41533;DHT22;27262;-35.248;149.138;2023-04-25T00:33:22;18.80;64.70
41533;DHT22;27262;-35.248;149.138;2023-04-25T00:35:52;18.80;64.60
41533;DHT22;27262;-35.248;149.138;2023-04-25T00:38:32;18.80;65.30
41533;DHT22;27262;-35.248;149.138;2023-04-25T00:41:02;18.90;64.70
41533;DHT22;27262;-35.248;149.138;2023-04-25T00:43:33;18.80;64.70
41533;DHT22;27262;-35.248;149.138;2023-04-25T00:46:03;18.80;64.50
41533;DHT22;27262;-35.248;149.138;2023-04-25T00:48:34;18.80;64.60
41533;DHT22;27262;-35.248;149.138;2023-04-25T00:51:04;18.80;64.40
41533;DHT22;27262;-35.248;149.138;2023-04-25T00:53:34;18.80;65.20
41533;DHT22;27262;-35.248;149.138;2023-04-25T00:56:05;18.80;65.50
41533;DHT22;27262;-35.248;149.138;2023-04-25T00:58:35;18.90;65.40
41533;DHT22;27262;-35.248;149.138;2023-04-25T01:01:06;18.90;65.90
41533;DHT22;27262;-35.248;149.138;2023-04-25T01:03:39;18.90;65.70
41533;DHT22;27262;-35.248;149.138;2023-04-25T01:06:11;18.90;65.30
41533;DHT22;27262;-35.248;149.138;2023-04-25T01:08:42;18.90;65.20
41533;DHT22;27262;-35.248;149.138;2023-04-25T01:11:12;18.90;64.90
41533;DHT22;27262;-35.248;149.138;2023-04-25T01:13:43;18.90;64.40
41533;DHT22;27262;-35.248;149.138;2023-04-25T01:16:13;18.80;63.70
41533;DHT22;27262;-35.248;149.138;2023-04-25T01:18:45;18.90;65.20
41533;DHT22;27262;-35.248;149.138;2023-04-25T01:21:15;18.90;65.80
41533;DHT22;27262;-35.248;149.138;2023-04-25T01:23:46;18.90;65.70
41533;DHT22;27262;-35.248;149.138;2023-04-25T01:26:16;18.90;65.50
41533;DHT22;27262;-35.248;149.138;2023-04-25T01:28:47;18.90;65.10
41533;DHT22;27262;-35.248;149.138;2023-04-25T01:31:19;18.90;64.50
41533;DHT22;27262;-35.248;149.138;2023-04-25T01:33:49;18.90;63.80
41533;DHT22;27262;-35.248;149.138;2023-04-25T01:36:21;18.90;63.40
41533;DHT22;27262;-35.248;149.138;2023-04-25T01:38:52;18.90;62.10
41533;DHT22;27262;-35.248;149.138;2023-04-25T01:41:22;18.90;61.70
41533;DHT22;27262;-35.248;149.138;2023-04-25T01:43:52;18.90;61.50
41533;DHT22;27262;-35.248;149.138;2023-04-25T01:46:23;18.90;61.60
41533;DHT22;27262;-35.248;149.138;2023-04-25T01:48:54;19.00;63.10
41533;DHT22;27262;-35.248;149.138;2023-04-25T01:51:24;19.00;62.90
41533;DHT22;27262;-35.248;149.138;2023-04-25T01:53:54;19.00;62.30
41533;DHT22;27262;-35.248;149.138;2023-04-25T01:56:31;19.00;61.20
41533;DHT22;27262;-35.248;149.138;2023-04-25T01:59:02;19.00;59.80
41533;DHT22;27262;-35.248;149.138;2023-04-25T02:01:33;19.10;60.10
41533;DHT22;27262;-35.248;149.138;2023-04-25T02:04:03;19.00;59.90
41533;DHT22;27262;-35.248;149.138;2023-04-25T02:06:34;19.00;58.70
41533;DHT22;27262;-35.248;149.138;2023-04-25T02:09:05;19.00;58.20
41533;DHT22;27262;-35.248;149.138;2023-04-25T02:11:35;19.00;57.40
41533;DHT22;27262;-35.248;149.138;2023-04-25T02:14:05;19.10;57.70
41533;DHT22;27262;-35.248;149.138;2023-04-25T02:16:35;19.10;58.40
41533;DHT22;27262;-35.248;149.138;2023-04-25T02:19:06;19.10;57.10
41533;DHT22;27262;-35.248;149.138;2023-04-25T02:21:37;19.10;56.50
41533;DHT22;27262;-35.248;149.138;2023-04-25T02:24:08;19.10;57.50
41533;DHT22;27262;-35.248;149.138;2023-04-25T02:26:39;19.10;57.00
41533;DHT22;27262;-35.248;149.138;2023-04-25T02:29:09;19.10;57.70
41533;DHT22;27262;-35.248;149.138;2023-04-25T02:31:40;19.20;57.70
41533;DHT22;27262;-35.248;149.138;2023-04-25T02:34:10;19.20;57.50
41533;DHT22;27262;-35.248;149.138;2023-04-25T02:36:41;19.20;57.10
41533;DHT22;27262;-35.248;149.138;2023-04-25T02:39:11;19.20;56.70
41533;DHT22;27262;-35.248;149.138;2023-04-25T02:41:41;19.20;57.20
41533;DHT22;27262;-35.248;149.138;2023-04-25T02:44:11;19.20;57.50
41533;DHT22;27262;-35.248;149.138;2023-04-25T02:46:42;19.30;57.40
41533;DHT22;27262;-35.248;149.138;2023-04-25T02:49:13;19.30;57.50
41533;DHT22;27262;-35.248;149.138;2023-04-25T02:51:44;19.30;58.10
41533;DHT22;27262;-35.248;149.138;2023-04-25T02:54:14;19.30;57.70
41533;DHT22;27262;-35.248;149.138;2023-04-25T02:56:45;19.30;57.10
41533;DHT22;27262;-35.248;149.138;2023-04-25T02:59:15;19.40;56.70
41533;DHT22;27262;-35.248;149.138;2023-04-25T03:01:45;19.40;56.80
41533;DHT22;27262;-35.248;149.138;2023-04-25T03:04:16;19.30;56.80
41533;DHT22;27262;-35.248;149.138;2023-04-25T03:06:48;19.40;56.40
41533;DHT22;27262;-35.248;149.138;2023-04-25T03:09:19;19.40;56.60
41533;DHT22;27262;-35.248;149.138;2023-04-25T03:11:49;19.40;56.20
41533;DHT22;27262;-35.248;149.138;2023-04-25T03:14:19;19.40;56.20
41533;DHT22;27262;-35.248;149.138;2023-04-25T03:16:50;19.40;57.30
41533;DHT22;27262;-35.248;149.138;2023-04-25T03:19:20;19.40;57.40
41533;DHT22;27262;-35.248;149.138;2023-04-25T03:21:50;19.40;57.20
41533;DHT22;27262;-35.248;149.138;2023-04-25T03:24:21;19.40;57.60
41533;DHT22;27262;-35.248;149.138;2023-04-25T03:26:51;19.50;56.70
41533;DHT22;27262;-35.248;149.138;2023-04-25T03:29:22;19.50;56.80
41533;DHT22;27262;-35.248;149.138;2023-04-25T03:31:55;19.50;56.20
41533;DHT22;27262;-35.248;149.138;2023-04-25T03:34:25;19.50;56.10
41533;DHT22;27262;-35.248;149.138;2023-04-25T03:36:56;19.50;56.70
41533;DHT22;27262;-35.248;149.138;2023-04-25T03:39:26;19.50;56.10
41533;DHT22;27262;-35.248;149.138;2023-04-25T03:41:56;19.60;55.90
41533;DHT22;27262;-35.248;149.138;2023-04-25T03:44:26;19.60;56.10
41533;DHT22;27262;-35.248;149.138;2023-04-25T03:46:57;19.60;56.70
41533;DHT22;27262;-35.248;149.138;2023-04-25T03:49:27;19.60;55.90
41533;DHT22;27262;-35.248;149.138;2023-04-25T03:51:58;19.60;55.20
41533;DHT22;27262;-35.248;149.138;2023-04-25T03:54:28;19.70;55.00
41533;DHT22;27262;-35.248;149.138;2023-04-25T03:56:59;19.70;56.00
41533;DHT22;27262;-35.248;149.138;2023-04-25T03:59:30;19.70;56.20
41533;DHT22;27262;-35.248;149.138;2023-04-25T04:02:00;19.70;55.10
41533;DHT22;27262;-35.248;149.138;2023-04-25T04:04:30;19.70;54.60
41533;DHT22;27262;-35.248;149.138;2023-04-25T04:07:01;19.70;54.30
41533;DHT22;27262;-35.248;149.138;2023-04-25T04:09:31;19.70;53.50
41533;DHT22;27262;-35.248;149.138;2023-04-25T04:12:02;19.70;53.90
41533;DHT22;27262;-35.248;149.138;2023-04-25T04:14:32;19.70;54.20
41533;DHT22;27262;-35.248;149.138;2023-04-25T04:17:02;19.70;53.80
41533;DHT22;27262;-35.248;149.138;2023-04-25T04:19:33;19.80;53.50
41533;DHT22;27262;-35.248;149.138;2023-04-25T04:22:03;19.80;53.30
41533;DHT22;27262;-35.248;149.138;2023-04-25T04:24:33;19.80;53.50
41533;DHT22;27262;-35.248;149.138;2023-04-25T04:27:03;19.80;53.90
41533;DHT22;27262;-35.248;149.138;2023-04-25T04:29:35;19.80;52.70
41533;DHT22;27262;-35.248;149.138;2023-04-25T04:32:06;19.80;53.00
41533;DHT22;27262;-35.248;149.138;2023-04-25T04:34:38;19.80;52.50
41533;DHT22;27262;-35.248;149.138;2023-04-25T04:37:09;19.90;53.50
41533;DHT22;27262;-35.248;149.138;2023-04-25T04:39:39;19.90;53.70
41533;DHT22;27262;-35.248;149.138;2023-04-25T04:42:10;19.90;53.30
41533;DHT22;27262;-35.248;149.138;2023-04-25T04:44:40;19.90;53.00
41533;DHT22;27262;-35.248;149.138;2023-04-25T04:47:14;19.90;53.20
41533;DHT22;27262;-35.248;149.138;2023-04-25T04:49:44;19.90;52.70
41533;DHT22;27262;-35.248;149.138;2023-04-25T04:52:15;20.00;52.10
41533;DHT22;27262;-35.248;149.138;2023-04-25T04:54:45;19.90;52.20
41533;DHT22;27262;-35.248;149.138;2023-04-25T04:57:15;20.00;52.20
41533;DHT22;27262;-35.248;149.138;2023-04-25T04:59:46;20.00;53.10
41533;DHT22;27262;-35.248;149.138;2023-04-25T05:02:16;20.00;52.80
41533;DHT22;27262;-35.248;149.138;2023-04-25T05:04:47;20.00;52.80
41533;DHT22;27262;-35.248;149.138;2023-04-25T05:07:18;20.00;52.60
41533;DHT22;27262;-35.248;149.138;2023-04-25T05:09:49;20.00;53.00
41533;DHT22;27262;-35.248;149.138;2023-04-25T05:12:19;20.00;54.00
41533;DHT22;27262;-35.248;149.138;2023-04-25T05:14:49;20.00;53.00
41533;DHT22;27262;-35.248;149.138;2023-04-25T05:17:20;20.00;52.50
41533;DHT22;27262;-35.248;149.138;2023-04-25T05:19:50;20.10;52.20
41533;DHT22;27262;-35.248;149.138;2023-04-25T05:22:21;20.10;52.20
41533;DHT22;27262;-35.248;149.138;2023-04-25T05:24:51;20.10;52.50
41533;DHT22;27262;-35.248;149.138;2023-04-25T05:27:23;20.10;52.60
41533;DHT22;27262;-35.248;149.138;2023-04-25T05:29:53;20.10;52.30
41533;DHT22;27262;-35.248;149.138;2023-04-25T05:32:24;20.10;53.10
41533;DHT22;27262;-35.248;149.138;2023-04-25T05:34:54;20.10;52.90
41533;DHT22;27262;-35.248;149.138;2023-04-25T05:37:25;20.10;52.80
41533;DHT22;27262;-35.248;149.138;2023-04-25T05:39:55;20.10;52.10
41533;DHT22;27262;-35.248;149.138;2023-04-25T05:42:26;20.10;51.90
41533;DHT22;27262;-35.248;149.138;2023-04-25T05:44:56;20.20;52.20
41533;DHT22;27262;-35.248;149.138;2023-04-25T05:47:26;20.20;52.30
41533;DHT22;27262;-35.248;149.138;2023-04-25T05:49:57;20.20;52.10
41533;DHT22;27262;-35.248;149.138;2023-04-25T05:52:27;20.20;52.60
41533;DHT22;27262;-35.248;149.138;2023-04-25T05:54:57;20.20;52.90
41533;DHT22;27262;-35.248;149.138;2023-04-25T05:57:28;20.20;52.90
41533;DHT22;27262;-35.248;149.138;2023-04-25T05:59:58;20.20;53.30
41533;DHT22;27262;-35.248;149.138;2023-04-25T06:02:28;20.20;54.10
41533;DHT22;27262;-35.248;149.138;2023-04-25T06:05:27;20.20;54.10
41533;DHT22;27262;-35.248;149.138;2023-04-25T06:08:00;20.20;54.00
41533;DHT22;27262;-35.248;149.138;2023-04-25T06:10:31;20.20;54.10
41533;DHT22;27262;-35.248;149.138;2023-04-25T06:13:06;20.20;54.10
41533;DHT22;27262;-35.248;149.138;2023-04-25T06:15:37;20.20;53.50
41533;DHT22;27262;-35.248;149.138;2023-04-25T06:18:08;20.20;54.30
41533;DHT22;27262;-35.248;149.138;2023-04-25T06:20:39;20.20;54.90
41533;DHT22;27262;-35.248;149.138;2023-04-25T06:23:12;20.20;55.00
41533;DHT22;27262;-35.248;149.138;2023-04-25T06:25:43;20.20;54.70
41533;DHT22;27262;-35.248;149.138;2023-04-25T06:28:14;20.20;54.90
41533;DHT22;27262;-35.248;149.138;2023-04-25T06:30:46;20.20;54.50
41533;DHT22;27262;-35.248;149.138;2023-04-25T06:33:17;20.20;54.80
41533;DHT22;27262;-35.248;149.138;2023-04-25T06:35:49;20.20;54.90
41533;DHT22;27262;-35.248;149.138;2023-04-25T06:38:29;20.20;54.90
41533;DHT22;27262;-35.248;149.138;2023-04-25T06:41:01;20.20;55.00
41533;DHT22;27262;-35.248;149.138;2023-04-25T06:43:33;20.20;55.30
41533;DHT22;27262;-35.248;149.138;2023-04-25T06:46:08;20.20;55.70
41533;DHT22;27262;-35.248;149.138;2023-04-25T06:48:44;20.20;55.80
41533;DHT22;27262;-35.248;149.138;2023-04-25T06:51:18;20.20;55.90
41533;DHT22;27262;-35.248;149.138;2023-04-25T06:53:51;20.20;55.70
41533;DHT22;27262;-35.248;149.138;2023-04-25T06:56:23;20.20;55.70
41533;DHT22;27262;-35.248;149.138;2023-04-25T06:58:55;20.20;55.70
41533;DHT22;27262;-35.248;149.138;2023-04-25T07:01:27;20.10;55.50
41533;DHT22;27262;-35.248;149.138;2023-04-25T07:03:58;20.10;55.60
41533;DHT22;27262;-35.248;149.138;2023-04-25T07:06:30;20.10;55.80
41533;DHT22;27262;-35.248;149.138;2023-04-25T07:09:04;20.10;55.90
41533;DHT22;27262;-35.248;149.138;2023-04-25T07:11:36;20.10;56.00
41533;DHT22;27262;-35.248;149.138;2023-04-25T07:14:07;20.10;56.50
41533;DHT22;27262;-35.248;149.138;2023-04-25T07:16:41;20.20;56.80
41533;DHT22;27262;-35.248;149.138;2023-04-25T07:19:12;20.20;56.90
41533;DHT22;27262;-35.248;149.138;2023-04-25T07:21:45;20.20;57.10
41533;DHT22;27262;-35.248;149.138;2023-04-25T07:24:21;20.20;57.10
41533;DHT22;27262;-35.248;149.138;2023-04-25T07:26:53;20.20;57.30
41533;DHT22;27262;-35.248;149.138;2023-04-25T07:29:27;20.20;57.50
41533;DHT22;27262;-35.248;149.138;2023-04-25T07:32:00;20.20;57.50
41533;DHT22;27262;-35.248;149.138;2023-04-25T07:34:33;20.20;57.60
41533;DHT22;27262;-35.248;149.138;2023-04-25T07:37:08;20.20;57.70
41533;DHT22;27262;-35.248;149.138;2023-04-25T07:39:41;20.20;58.00
41533;DHT22;27262;-35.248;149.138;2023-04-25T07:42:12;20.20;57.90
41533;DHT22;27262;-35.248;149.138;2023-04-25T07:44:44;20.20;57.90
41533;DHT22;27262;-35.248;149.138;2023-04-25T07:47:15;20.20;58.10
41533;DHT22;27262;-35.248;149.138;2023-04-25T07:49:49;20.20;58.10
41533;DHT22;27262;-35.248;149.138;2023-04-25T07:52:20;20.20;58.20
41533;DHT22;27262;-35.248;149.138;2023-04-25T07:54:54;20.20;58.20
41533;DHT22;27262;-35.248;149.138;2023-04-25T07:57:26;20.20;58.30
41533;DHT22;27262;-35.248;149.138;2023-04-25T08:00:00;20.20;58.40
41533;DHT22;27262;-35.248;149.138;2023-04-25T08:02:32;20.20;58.40
41533;DHT22;27262;-35.248;149.138;2023-04-25T08:05:03;20.20;58.40
41533;DHT22;27262;-35.248;149.138;2023-04-25T08:07:35;20.20;58.40
41533;DHT22;27262;-35.248;149.138;2023-04-25T08:10:07;20.20;58.50
41533;DHT22;27262;-35.248;149.138;2023-04-25T08:12:38;20.20;58.70
41533;DHT22;27262;-35.248;149.138;2023-04-25T08:15:10;20.20;58.70
41533;DHT22;27262;-35.248;149.138;2023-04-25T08:17:42;20.20;58.70
41533;DHT22;27262;-35.248;149.138;2023-04-25T08:20:15;20.20;58.80
41533;DHT22;27262;-35.248;149.138;2023-04-25T08:22:45;20.20;58.80
41533;DHT22;27262;-35.248;149.138;2023-04-25T08:25:20;20.20;59.10
41533;DHT22;27262;-35.248;149.138;2023-04-25T08:27:52;20.20;59.50
41533;DHT22;27262;-35.248;149.138;2023-04-25T08:30:23;20.30;59.70
41533;DHT22;27262;-35.248;149.138;2023-04-25T08:32:57;20.30;59.80
41533;DHT22;27262;-35.248;149.138;2023-04-25T08:35:30;20.30;59.80
41533;DHT22;27262;-35.248;149.138;2023-04-25T08:38:03;20.40;59.90
41533;DHT22;27262;-35.248;149.138;2023-04-25T08:40:38;20.40;59.90
41533;DHT22;27262;-35.248;149.138;2023-04-25T08:43:12;20.40;60.70
41533;DHT22;27262;-35.248;149.138;2023-04-25T08:45:44;20.40;60.00
41533;DHT22;27262;-35.248;149.138;2023-04-25T08:48:17;20.40;60.00
41533;DHT22;27262;-35.248;149.138;2023-04-25T08:50:55;20.40;60.80
41533;DHT22;27262;-35.248;149.138;2023-04-25T08:53:28;20.50;60.10
41533;DHT22;27262;-35.248;149.138;2023-04-25T08:56:04;20.50;60.10
41533;DHT22;27262;-35.248;149.138;2023-04-25T08:58:36;20.50;60.20
41533;DHT22;27262;-35.248;149.138;2023-04-25T09:01:08;20.50;60.20
41533;DHT22;27262;-35.248;149.138;2023-04-25T09:03:43;20.50;60.30
41533;DHT22;27262;-35.248;149.138;2023-04-25T09:06:18;20.50;60.30
41533;DHT22;27262;-35.248;149.138;2023-04-25T09:08:52;20.60;60.50
41533;DHT22;27262;-35.248;149.138;2023-04-25T09:11:25;20.60;60.50
41533;DHT22;27262;-35.248;149.138;2023-04-25T09:14:19;20.60;60.50
41533;DHT22;27262;-35.248;149.138;2023-04-25T09:16:58;20.60;60.60
41533;DHT22;27262;-35.248;149.138;2023-04-25T09:19:34;20.60;60.50
41533;DHT22;27262;-35.248;149.138;2023-04-25T09:22:09;20.60;60.80
41533;DHT22;27262;-35.248;149.138;2023-04-25T09:24:43;20.60;60.70
41533;DHT22;27262;-35.248;149.138;2023-04-25T09:27:23;20.60;60.80
41533;DHT22;27262;-35.248;149.138;2023-04-25T09:30:00;20.60;60.70
41533;DHT22;27262;-35.248;149.138;2023-04-25T09:32:31;20.60;60.90
41533;DHT22;27262;-35.248;149.138;2023-04-25T09:35:04;20.60;60.90
41533;DHT22;27262;-35.248;149.138;2023-04-25T09:37:36;20.60;60.90
41533;DHT22;27262;-35.248;149.138;2023-04-25T09:40:08;20.60;60.80
41533;DHT22;27262;-35.248;149.138;2023-04-25T09:42:42;20.60;60.90
41533;DHT22;27262;-35.248;149.138;2023-04-25T09:45:15;20.60;61.00
41533;DHT22;27262;-35.248;149.138;2023-04-25T09:47:49;20.60;60.60
41533;DHT22;27262;-35.248;149.138;2023-04-25T09:50:21;20.60;61.00
41533;DHT22;27262;-35.248;149.138;2023-04-25T09:53:04;20.60;60.70
41533;DHT22;27262;-35.248;149.138;2023-04-25T09:55:39;20.60;61.00
41533;DHT22;27262;-35.248;149.138;2023-04-25T09:58:12;20.60;60.90
41533;DHT22;27262;-35.248;149.138;2023-04-25T10:00:43;20.60;61.10
41533;DHT22;27262;-35.248;149.138;2023-04-25T10:03:15;20.60;61.00
41533;DHT22;27262;-35.248;149.138;2023-04-25T10:05:49;20.60;60.70
41533;DHT22;27262;-35.248;149.138;2023-04-25T10:08:23;20.60;60.90
41533;DHT22;27262;-35.248;149.138;2023-04-25T10:11:08;20.60;60.90
41533;DHT22;27262;-35.248;149.138;2023-04-25T10:13:41;20.60;61.00
41533;DHT22;27262;-35.248;149.138;2023-04-25T10:16:12;20.60;61.00
41533;DHT22;27262;-35.248;149.138;2023-04-25T10:18:46;20.60;61.10
41533;DHT22;27262;-35.248;149.138;2023-04-25T10:21:16;20.60;61.00
41533;DHT22;27262;-35.248;149.138;2023-04-25T10:23:50;20.60;61.00
41533;DHT22;27262;-35.248;149.138;2023-04-25T10:26:22;20.60;61.20
41533;DHT22;27262;-35.248;149.138;2023-04-25T10:28:58;20.60;61.10
41533;DHT22;27262;-35.248;149.138;2023-04-25T10:31:31;20.60;61.30
41533;DHT22;27262;-35.248;149.138;2023-04-25T10:34:02;20.60;61.10
41533;DHT22;27262;-35.248;149.138;2023-04-25T10:36:34;20.60;61.20
41533;DHT22;27262;-35.248;149.138;2023-04-25T10:39:10;20.60;61.10
41533;DHT22;27262;-35.248;149.138;2023-04-25T10:41:52;20.60;61.00
41533;DHT22;27262;-35.248;149.138;2023-04-25T10:44:30;20.60;61.10
41533;DHT22;27262;-35.248;149.138;2023-04-25T10:47:02;20.60;61.20
41533;DHT22;27262;-35.248;149.138;2023-04-25T10:49:45;20.60;61.30
41533;DHT22;27262;-35.248;149.138;2023-04-25T10:52:25;20.60;61.50
41533;DHT22;27262;-35.248;149.138;2023-04-25T10:54:57;20.60;61.40
41533;DHT22;27262;-35.248;149.138;2023-04-25T10:57:42;20.60;61.50
41533;DHT22;27262;-35.248;149.138;2023-04-25T11:00:18;20.60;61.30
41533;DHT22;27262;-35.248;149.138;2023-04-25T11:02:57;20.60;61.60
41533;DHT22;27262;-35.248;149.138;2023-04-25T11:05:35;20.60;61.40
41533;DHT22;27262;-35.248;149.138;2023-04-25T11:08:50;20.60;61.70
41533;DHT22;27262;-35.248;149.138;2023-04-25T11:11:21;20.60;61.50
41533;DHT22;27262;-35.248;149.138;2023-04-25T11:13:51;20.60;61.80
41533;DHT22;27262;-35.248;149.138;2023-04-25T11:16:24;20.70;61.70
41533;DHT22;27262;-35.248;149.138;2023-04-25T11:18:58;20.70;61.90
41533;DHT22;27262;-35.248;149.138;2023-04-25T11:21:30;20.60;61.60
41533;DHT22;27262;-35.248;149.138;2023-04-25T11:24:03;20.60;61.80
41533;DHT22;27262;-35.248;149.138;2023-04-25T11:26:35;20.60;61.70
41533;DHT22;27262;-35.248;149.138;2023-04-25T11:29:07;20.60;61.80
41533;DHT22;27262;-35.248;149.138;2023-04-25T11:31:44;20.70;61.70
41533;DHT22;27262;-35.248;149.138;2023-04-25T11:34:19;20.70;61.90
41533;DHT22;27262;-35.248;149.138;2023-04-25T11:36:49;20.70;61.80
41533;DHT22;27262;-35.248;149.138;2023-04-25T11:39:20;20.60;61.90
41533;DHT22;27262;-35.248;149.138;2023-04-25T11:41:51;20.70;61.90
41533;DHT22;27262;-35.248;149.138;2023-04-25T11:44:22;20.60;61.90
41533;DHT22;27262;-35.248;149.138;2023-04-25T11:46:52;20.70;62.00
41533;DHT22;27262;-35.248;149.138;2023-04-25T11:49:23;20.60;61.90
41533;DHT22;27262;-35.248;149.138;2023-04-25T11:51:56;20.70;62.10
41533;DHT22;27262;-35.248;149.138;2023-04-25T11:54:26;20.60;61.90
41533;DHT22;27262;-35.248;149.138;2023-04-25T11:56:56;20.70;62.20
41533;DHT22;27262;-35.248;149.138;2023-04-25T11:59:27;20.60;61.90
41533;DHT22;27262;-35.248;149.138;2023-04-25T12:01:58;20.60;61.90
41533;DHT22;27262;-35.248;149.138;2023-04-25T12:04:31;20.60;62.00
41533;DHT22;27262;-35.248;149.138;2023-04-25T12:07:02;20.70;62.00
41533;DHT22;27262;-35.248;149.138;2023-04-25T12:09:33;20.60;62.10
41533;DHT22;27262;-35.248;149.138;2023-04-25T12:12:04;20.70;62.20
41533;DHT22;27262;-35.248;149.138;2023-04-25T12:14:36;20.70;62.10
41533;DHT22;27262;-35.248;149.138;2023-04-25T12:17:06;20.70;62.20
41533;DHT22;27262;-35.248;149.138;2023-04-25T12:19:39;20.70;62.10
41533;DHT22;27262;-35.248;149.138;2023-04-25T12:22:23;20.70;62.30
41533;DHT22;27262;-35.248;149.138;2023-04-25T12:24:54;20.70;62.10
41533;DHT22;27262;-35.248;149.138;2023-04-25T12:27:27;20.70;62.20
41533;DHT22;27262;-35.248;149.138;2023-04-25T12:29:59;20.70;62.20
41533;DHT22;27262;-35.248;149.138;2023-04-25T12:32:30;20.70;62.30
41533;DHT22;27262;-35.248;149.138;2023-04-25T12:35:01;20.70;62.30
41533;DHT22;27262;-35.248;149.138;2023-04-25T12:37:31;20.60;62.10
41533;DHT22;27262;-35.248;149.138;2023-04-25T12:40:02;20.60;62.10
41533;DHT22;27262;-35.248;149.138;2023-04-25T12:42:33;20.60;62.10
41533;DHT22;27262;-35.248;149.138;2023-04-25T12:45:04;20.60;62.10
41533;DHT22;27262;-35.248;149.138;2023-04-25T12:47:35;20.60;62.30
41533;DHT22;27262;-35.248;149.138;2023-04-25T12:50:06;20.60;62.40
41533;DHT22;27262;-35.248;149.138;2023-04-25T12:52:36;20.60;62.40
41533;DHT22;27262;-35.248;149.138;2023-04-25T12:55:07;20.60;62.30
41533;DHT22;27262;-35.248;149.138;2023-04-25T12:57:37;20.60;62.50
41533;DHT22;27262;-35.248;149.138;2023-04-25T13:00:08;20.60;62.50
41533;DHT22;27262;-35.248;149.138;2023-04-25T13:02:44;20.60;63.20
41533;DHT22;27262;-35.248;149.138;2023-04-25T13:05:16;20.60;62.50
41533;DHT22;27262;-35.248;149.138;2023-04-25T13:07:46;20.60;62.60
41533;DHT22;27262;-35.248;149.138;2023-04-25T13:10:17;20.60;62.60
41533;DHT22;27262;-35.248;149.138;2023-04-25T13:12:47;20.60;62.60
41533;DHT22;27262;-35.248;149.138;2023-04-25T13:15:17;20.60;62.60
41533;DHT22;27262;-35.248;149.138;2023-04-25T13:17:48;20.50;62.50
41533;DHT22;27262;-35.248;149.138;2023-04-25T13:20:18;20.50;62.60
41533;DHT22;27262;-35.248;149.138;2023-04-25T13:22:52;20.50;62.60
41533;DHT22;27262;-35.248;149.138;2023-04-25T13:25:22;20.50;62.60
41533;DHT22;27262;-35.248;149.138;2023-04-25T13:27:54;20.50;62.70
41533;DHT22;27262;-35.248;149.138;2023-04-25T13:30:24;20.50;62.70
41533;DHT22;27262;-35.248;149.138;2023-04-25T13:32:55;20.50;62.80
41533;DHT22;27262;-35.248;149.138;2023-04-25T13:35:26;20.50;62.80
41533;DHT22;27262;-35.248;149.138;2023-04-25T13:37:57;20.40;62.90
41533;DHT22;27262;-35.248;149.138;2023-04-25T13:40:27;20.40;62.90
41533;DHT22;27262;-35.248;149.138;2023-04-25T13:42:58;20.40;62.90
41533;DHT22;27262;-35.248;149.138;2023-04-25T13:45:29;20.50;63.00
41533;DHT22;27262;-35.248;149.138;2023-04-25T13:48:01;20.40;63.00
41533;DHT22;27262;-35.248;149.138;2023-04-25T13:50:32;20.40;63.10
41533;DHT22;27262;-35.248;149.138;2023-04-25T13:53:02;20.30;63.10
41533;DHT22;27262;-35.248;149.138;2023-04-25T13:55:34;20.40;63.20
41533;DHT22;27262;-35.248;149.138;2023-04-25T13:58:05;20.40;64.00
41533;DHT22;27262;-35.248;149.138;2023-04-25T14:00:39;20.40;63.30
41533;DHT22;27262;-35.248;149.138;2023-04-25T14:03:12;20.40;63.30
41533;DHT22;27262;-35.248;149.138;2023-04-25T14:05:43;20.30;63.30
41533;DHT22;27262;-35.248;149.138;2023-04-25T14:08:13;20.30;63.30
41533;DHT22;27262;-35.248;149.138;2023-04-25T14:10:51;20.30;63.40
41533;DHT22;27262;-35.248;149.138;2023-04-25T14:13:22;20.30;63.40
41533;DHT22;27262;-35.248;149.138;2023-04-25T14:15:55;20.30;63.40
41533;DHT22;27262;-35.248;149.138;2023-04-25T14:18:26;20.30;63.40
41533;DHT22;27262;-35.248;149.138;2023-04-25T14:20:57;20.30;63.50
41533;DHT22;27262;-35.248;149.138;2023-04-25T14:23:27;20.30;63.40
41533;DHT22;27262;-35.248;149.138;2023-04-25T14:25:58;20.30;63.50
41533;DHT22;27262;-35.248;149.138;2023-04-25T14:28:28;20.20;63.50
41533;DHT22;27262;-35.248;149.138;2023-04-25T14:30:58;20.20;63.50
41533;DHT22;27262;-35.248;149.138;2023-04-25T14:33:30;20.20;63.50
41533;DHT22;27262;-35.248;149.138;2023-04-25T14:36:00;20.20;63.50
41533;DHT22;27262;-35.248;149.138;2023-04-25T14:38:31;20.20;63.60
41533;DHT22;27262;-35.248;149.138;2023-04-25T14:41:01;20.20;63.60
41533;DHT22;27262;-35.248;149.138;2023-04-25T14:43:31;20.20;63.60
41533;DHT22;27262;-35.248;149.138;2023-04-25T14:46:02;20.20;63.60
41533;DHT22;27262;-35.248;149.138;2023-04-25T14:48:34;20.10;63.60
41533;DHT22;27262;-35.248;149.138;2023-04-25T14:51:04;20.20;63.70
41533;DHT22;27262;-35.248;149.138;2023-04-25T14:53:35;20.10;63.60
41533;DHT22;27262;-35.248;149.138;2023-04-25T14:56:05;20.10;63.60
41533;DHT22;27262;-35.248;149.138;2023-04-25T14:58:36;20.10;63.60
41533;DHT22;27262;-35.248;149.138;2023-04-25T15:01:08;20.10;63.70
41533;DHT22;27262;-35.248;149.138;2023-04-25T15:03:41;20.10;63.70
41533;DHT22;27262;-35.248;149.138;2023-04-25T15:06:12;20.00;63.60
41533;DHT22;27262;-35.248;149.138;2023-04-25T15:08:44;20.10;63.70
41533;DHT22;27262;-35.248;149.138;2023-04-25T15:11:14;20.00;63.70
41533;DHT22;27262;-35.248;149.138;2023-04-25T15:13:44;20.00;63.70
41533;DHT22;27262;-35.248;149.138;2023-04-25T15:16:15;20.00;63.70